createdAt,value
2022-12-18T00:03:28.314Z,81.20
2022-12-18T00:08:30.807Z,80.82
2022-12-18T00:13:33.309Z,81.25
2022-12-18T00:18:36.143Z,81.03
2022-12-18T00:23:40.712Z,81.42
2022-12-18T00:28:44.807Z,80.80
2022-12-18T00:33:47.689Z,81.16
2022-12-18T00:38:52.790Z,80.99
2022-12-18T00:43:55.144Z,81.31
2022-12-18T00:48:57.673Z,81.38
2022-12-18T00:54:00.243Z,80.67
2022-12-18T00:59:02.685Z,80.77
2022-12-18T01:04:06.710Z,80.97
2022-12-18T01:09:09.160Z,81.11
2022-12-18T01:14:12.779Z,81.17
2022-12-18T01:19:15.282Z,80.90
2022-12-18T01:24:17.660Z,81.15
2022-12-18T01:29:20.115Z,81.30
2022-12-18T01:34:22.862Z,81.46
2022-12-18T01:39:25.405Z,81.34
2022-12-18T01:44:49.682Z,81.21
2022-12-18T01:49:52.757Z,81.10
2022-12-18T01:54:56.823Z,81.55
2022-12-18T02:00:03.406Z,81.42
2022-12-18T02:05:20.119Z,81.14
2022-12-18T02:10:29.082Z,81.11
2022-12-18T02:15:51.717Z,81.38
2022-12-18T02:21:32.674Z,81.50
2022-12-18T02:26:45.859Z,81.54
2022-12-18T02:32:00.758Z,81.69
2022-12-18T02:37:07.052Z,81.57
2022-12-18T02:42:11.397Z,81.48
2022-12-18T02:47:16.147Z,81.51
2022-12-18T02:52:27.736Z,81.25
2022-12-18T02:57:45.738Z,80.72
2022-12-18T03:03:13.550Z,80.65
2022-12-18T03:08:23.017Z,80.36
2022-12-18T03:13:41.472Z,80.50
2022-12-18T03:19:00.187Z,79.89
2022-12-18T03:24:07.351Z,80.38
2022-12-18T03:29:16.301Z,80.01
2022-12-18T03:34:25.051Z,79.90
2022-12-18T03:39:27.663Z,79.89
2022-12-18T03:44:45.299Z,79.95
2022-12-18T03:50:24.342Z,80.44
2022-12-18T03:55:31.812Z,80.70
2022-12-18T04:00:39.270Z,80.49
2022-12-18T04:05:47.007Z,80.28
2022-12-18T04:10:51.048Z,80.62
2022-12-18T04:15:54.616Z,80.52
2022-12-18T04:20:58.041Z,80.83
2022-12-18T04:26:01.290Z,80.49
2022-12-18T04:31:27.485Z,80.18
2022-12-18T04:36:30.248Z,80.00
2022-12-18T04:41:32.633Z,80.41
2022-12-18T04:46:38.802Z,80.64
2022-12-18T04:51:41.454Z,80.04
2022-12-18T04:56:43.908Z,80.27
2022-12-18T05:01:47.247Z,80.28
2022-12-18T05:06:49.862Z,80.07
2022-12-18T05:11:52.334Z,79.99
2022-12-18T05:16:57.962Z,80.79
2022-12-18T05:22:03.356Z,80.40
2022-12-18T05:27:05.830Z,80.82
2022-12-18T05:32:08.198Z,80.71
2022-12-18T05:37:10.664Z,80.56
2022-12-18T05:42:13.122Z,80.44
2022-12-18T05:47:15.714Z,80.81
2022-12-18T05:52:18.223Z,80.75
2022-12-18T05:57:20.701Z,80.94
2022-12-18T06:02:23.351Z,80.96
2022-12-18T06:07:25.861Z,80.90
2022-12-18T06:12:28.342Z,81.13
2022-12-18T06:17:31.856Z,81.09
2022-12-18T06:22:34.783Z,81.08
2022-12-18T06:27:37.151Z,81.08
2022-12-18T06:32:39.569Z,81.20
2022-12-18T06:37:42.006Z,80.41
2022-12-18T06:42:44.455Z,80.34
2022-12-18T06:47:46.925Z,80.24
2022-12-18T06:52:49.324Z,80.35
2022-12-18T06:57:51.866Z,80.30
2022-12-18T07:02:54.349Z,79.98
2022-12-18T07:07:57.095Z,79.61
2022-12-18T07:12:59.501Z,79.47
2022-12-18T07:18:01.954Z,79.54
2022-12-18T07:23:06.483Z,79.55
2022-12-18T07:28:12.847Z,78.99
2022-12-18T07:33:19.578Z,79.46
2022-12-18T07:38:22.156Z,79.51
2022-12-18T07:43:24.572Z,80.14
2022-12-18T07:48:27.044Z,80.03
2022-12-18T07:53:29.665Z,79.77
2022-12-18T07:58:32.774Z,80.16
2022-12-18T08:03:35.767Z,79.68
2022-12-18T08:08:38.510Z,79.71
2022-12-18T08:13:41.219Z,79.95
2022-12-18T08:18:44.067Z,80.40
2022-12-18T08:23:46.757Z,80.11
2022-12-18T08:28:50.468Z,80.47
2022-12-18T08:33:54.126Z,80.41
2022-12-18T08:38:58.383Z,80.10
2022-12-18T08:44:19.704Z,80.42
2022-12-18T08:49:22.116Z,79.99
2022-12-18T08:54:26.068Z,80.29
2022-12-18T08:59:31.464Z,80.78
2022-12-18T09:04:33.979Z,80.44
2022-12-18T09:09:37.146Z,80.82
2022-12-18T09:14:39.621Z,80.70
2022-12-18T09:19:42.137Z,80.46
2022-12-18T09:24:45.038Z,80.50
2022-12-18T09:29:47.840Z,80.11
2022-12-18T09:34:50.691Z,80.13
2022-12-18T09:39:53.085Z,80.14
2022-12-18T09:44:56.000Z,80.46
2022-12-18T09:50:03.186Z,80.58
2022-12-18T09:55:24.046Z,80.58
2022-12-18T10:00:27.061Z,81.13
2022-12-18T10:05:40.234Z,80.76
2022-12-18T10:10:54.312Z,80.64
2022-12-18T10:16:26.731Z,81.18
2022-12-18T10:21:35.195Z,80.94
2022-12-18T10:26:37.774Z,80.71
2022-12-18T10:31:40.688Z,80.35
2022-12-18T10:36:43.740Z,80.45
2022-12-18T10:41:46.581Z,79.83
2022-12-18T10:47:10.073Z,80.04
2022-12-18T10:52:19.389Z,79.99
2022-12-18T10:57:36.901Z,79.68
2022-12-18T11:02:40.338Z,79.86
2022-12-18T11:07:51.531Z,79.70
2022-12-18T11:12:54.009Z,79.59
2022-12-18T11:17:56.854Z,79.96
2022-12-18T11:23:05.854Z,79.96
2022-12-18T11:28:28.284Z,80.26
2022-12-18T11:33:31.080Z,80.36
2022-12-18T11:38:44.126Z,80.74
2022-12-18T11:44:00.323Z,80.31
2022-12-18T11:49:29.843Z,80.62
2022-12-18T11:54:32.721Z,80.88
2022-12-18T11:59:50.136Z,81.00
2022-12-18T12:05:21.178Z,80.86
2022-12-18T12:10:29.722Z,80.80
2022-12-18T12:15:52.540Z,80.80
2022-12-18T12:20:55.032Z,80.93
2022-12-18T12:26:20.539Z,80.98
2022-12-18T12:31:35.446Z,81.21
2022-12-18T12:37:13.192Z,81.48
2022-12-18T12:43:06.102Z,81.35
2022-12-18T12:48:18.906Z,81.86
2022-12-18T12:53:36.843Z,81.36
2022-12-18T12:59:20.598Z,81.59
2022-12-18T13:04:42.535Z,81.50
2022-12-18T13:10:12.772Z,81.93
2022-12-18T13:15:46.231Z,81.90
2022-12-18T13:21:03.162Z,81.92
2022-12-18T13:26:07.261Z,81.97
2022-12-18T13:31:09.620Z,81.81
2022-12-18T13:36:24.409Z,81.33
2022-12-18T13:41:29.521Z,81.45
2022-12-18T13:46:43.688Z,80.80
2022-12-18T13:51:51.109Z,80.64
2022-12-18T13:56:55.252Z,81.13
2022-12-18T14:02:00.325Z,81.37
2022-12-18T14:07:18.321Z,81.09
2022-12-18T14:12:45.859Z,80.78
2022-12-18T14:17:52.364Z,81.42
2022-12-18T14:22:59.092Z,81.44
2022-12-18T14:28:08.685Z,81.27
2022-12-18T14:33:15.589Z,81.31
2022-12-18T14:38:21.516Z,81.40
2022-12-18T14:43:24.274Z,81.54
2022-12-18T14:48:40.034Z,81.57
2022-12-18T14:53:52.101Z,81.37
2022-12-18T14:59:03.517Z,81.37
2022-12-18T15:04:24.770Z,81.54
2022-12-18T15:09:27.639Z,80.88
2022-12-18T15:14:42.896Z,80.83
2022-12-18T15:19:47.278Z,80.46
2022-12-18T15:24:50.244Z,80.29
2022-12-18T15:30:17.446Z,80.73
2022-12-18T15:35:25.269Z,80.53
2022-12-18T15:40:27.789Z,80.90
2022-12-18T15:45:30.575Z,80.89
2022-12-18T15:50:35.916Z,80.59
2022-12-18T15:56:01.026Z,80.76
2022-12-18T16:01:03.994Z,80.72
2022-12-18T16:06:06.713Z,80.76
2022-12-18T16:11:41.902Z,80.34
2022-12-18T16:16:44.779Z,80.38
2022-12-18T16:21:48.801Z,80.62
2022-12-18T16:26:55.310Z,80.44
2022-12-18T16:31:59.294Z,80.43
2022-12-18T16:37:06.064Z,80.46
2022-12-18T16:42:20.802Z,80.76
2022-12-18T16:47:23.437Z,80.53
2022-12-18T16:52:26.340Z,80.57
2022-12-18T16:57:28.856Z,80.73
2022-12-18T17:02:31.478Z,80.49
2022-12-18T17:07:36.346Z,80.41
2022-12-18T17:12:39.303Z,80.12
2022-12-18T17:17:41.752Z,79.94
2022-12-18T17:22:44.195Z,79.87
2022-12-18T17:27:46.661Z,79.93
2022-12-18T17:32:49.094Z,79.60
2022-12-18T17:37:51.615Z,79.56
2022-12-18T17:42:54.131Z,79.40
2022-12-18T17:47:59.991Z,79.06
2022-12-18T17:53:03.288Z,78.72
2022-12-18T17:58:05.734Z,79.17
2022-12-18T18:03:08.872Z,79.05
2022-12-18T18:08:11.457Z,78.68
2022-12-18T18:13:51.988Z,78.53
2022-12-18T18:18:57.863Z,78.50
2022-12-18T18:24:05.307Z,78.35
2022-12-18T18:29:15.162Z,78.82
2022-12-18T18:34:25.276Z,78.92
2022-12-18T18:39:28.327Z,79.39
2022-12-18T18:44:30.954Z,79.58
2022-12-18T18:49:33.462Z,79.36
2022-12-18T18:54:35.983Z,79.35
2022-12-18T18:59:38.712Z,79.28
2022-12-18T19:04:46.084Z,79.26
2022-12-18T19:09:52.630Z,79.46
2022-12-18T19:14:55.404Z,79.48
2022-12-18T19:19:57.842Z,79.51
2022-12-18T19:25:00.383Z,78.93
2022-12-18T19:30:02.768Z,79.32
2022-12-18T19:35:06.260Z,79.44
2022-12-18T19:40:12.444Z,79.44
2022-12-18T19:45:15.722Z,79.85
2022-12-18T19:50:18.380Z,80.32
2022-12-18T19:55:20.965Z,79.58
2022-12-18T20:00:23.990Z,79.33
2022-12-18T20:05:26.399Z,79.82
2022-12-18T20:10:28.858Z,79.59
2022-12-18T20:15:31.298Z,79.94
2022-12-18T20:20:33.770Z,80.44
2022-12-18T20:25:38.785Z,79.99
2022-12-18T20:30:41.810Z,79.60
2022-12-18T20:35:44.238Z,79.50
2022-12-18T20:40:47.484Z,79.42
2022-12-18T20:45:49.988Z,79.73
2022-12-18T20:51:04.233Z,79.31
2022-12-18T20:56:17.798Z,78.87
2022-12-18T21:01:25.554Z,78.87
2022-12-18T21:06:28.149Z,79.36
2022-12-18T21:11:52.882Z,78.75
2022-12-18T21:16:56.079Z,79.10
2022-12-18T21:21:58.820Z,79.30
2022-12-18T21:27:02.132Z,79.40
2022-12-18T21:32:05.833Z,79.37
2022-12-18T21:37:08.245Z,78.86
2022-12-18T21:42:30.954Z,79.57
2022-12-18T21:47:33.474Z,79.32
2022-12-18T21:52:35.867Z,77.76
2022-12-18T21:57:39.509Z,77.25
2022-12-18T22:02:42.324Z,77.56
2022-12-18T22:07:44.889Z,77.43
2022-12-18T22:12:48.625Z,77.11
2022-12-18T22:17:53.446Z,76.08
2022-12-18T22:23:06.263Z,76.18
2022-12-18T22:28:27.678Z,75.87
2022-12-18T22:33:30.061Z,76.53
2022-12-18T22:38:32.495Z,76.64
2022-12-18T22:43:34.974Z,76.35
2022-12-18T22:48:37.333Z,76.63
2022-12-18T22:53:39.804Z,76.52
2022-12-18T22:58:48.701Z,76.30
2022-12-18T23:03:52.275Z,76.41
2022-12-18T23:08:58.381Z,75.77
2022-12-18T23:14:00.801Z,74.24
2022-12-18T23:19:04.369Z,73.67
2022-12-18T23:24:07.241Z,72.84
2022-12-18T23:29:09.937Z,71.93
2022-12-18T23:34:14.054Z,72.56
2022-12-18T23:39:29.092Z,72.96
2022-12-18T23:44:32.438Z,72.15
2022-12-18T23:49:34.856Z,73.58
2022-12-18T23:54:38.212Z,73.71
2022-12-18T23:59:40.763Z,72.28
